Time;durP1;ratioP1;P1;durP2;ratioP2;P2;SDS_P1;SDS_P2;PMS_P1;PMS_P2;Temp;Humidity;BMP_temperature;BMP_pressure;BME280_temperature;BME280_humidity;BME280_pressure;Samples;Min_cycle;Max_cycle;Signal;HPM_P1;HPM_P2
2023/03/12 00:01:18;;;;;;;2.60;2.03;;;-0.10;99.90;;;;;;5051806;28;20245;-72
2023/03/12 00:03:44;;;;;;;6.65;2.28;;;0.00;99.90;;;;;;5051957;28;20573;-71
2023/03/12 00:06:10;;;;;;;2.10;1.33;;;0.00;99.90;;;;;;5051188;28;20707;-71
2023/03/12 00:08:36;;;;;;;2.17;1.80;;;-0.10;99.90;;;;;;5051442;28;20302;-71
2023/03/12 00:11:06;;;;;;;5.33;1.70;;;-0.10;99.90;;;;;;5051408;28;20219;-71
2023/03/12 00:13:32;;;;;;;4.22;2.10;;;0.00;99.90;;;;;;5051358;28;20212;-71
2023/03/12 00:16:03;;;;;;;13.83;2.20;;;0.00;99.90;;;;;;5051071;28;20192;-71
2023/03/12 00:18:28;;;;;;;4.55;1.73;;;-0.10;99.90;;;;;;5051110;28;20230;-71
2023/03/12 00:20:55;;;;;;;8.73;2.73;;;-0.10;99.90;;;;;;5050699;28;20666;-71
2023/03/12 00:23:20;;;;;;;4.53;2.00;;;-0.10;99.90;;;;;;5050828;28;20211;-71
2023/03/12 00:25:46;;;;;;;3.40;1.80;;;-0.10;99.90;;;;;;5050653;28;20187;-71
2023/03/12 00:28:11;;;;;;;1.93;1.57;;;-0.10;99.90;;;;;;5050679;28;20180;-71
2023/03/12 00:30:39;;;;;;;10.33;2.20;;;-0.20;99.90;;;;;;5050579;28;20683;-71
2023/03/12 00:33:05;;;;;;;5.03;1.90;;;-0.20;99.90;;;;;;5050721;28;20253;-71
2023/03/12 00:35:31;;;;;;;2.97;1.50;;;-0.20;99.90;;;;;;5050481;28;20199;-71
2023/03/12 00:37:57;;;;;;;3.30;1.83;;;-0.10;99.90;;;;;;5050695;28;20218;-71
2023/03/12 00:40:22;;;;;;;4.60;1.83;;;-0.10;99.90;;;;;;5050274;28;20234;-72
2023/03/12 00:42:48;;;;;;;4.20;1.90;;;-0.20;99.90;;;;;;5049015;28;20184;-72
2023/03/12 00:45:14;;;;;;;7.80;1.53;;;-0.20;99.90;;;;;;5048542;28;20180;-71
2023/03/12 00:47:39;;;;;;;4.40;1.90;;;-0.20;99.90;;;;;;5050513;28;20262;-71
2023/03/12 00:50:05;;;;;;;4.73;2.20;;;-0.10;99.90;;;;;;5050020;28;20273;-72
2023/03/12 00:52:31;;;;;;;4.18;1.70;;;-0.20;99.90;;;;;;5050045;28;20600;-71
2023/03/12 00:54:57;;;;;;;7.07;1.97;;;-0.20;99.90;;;;;;5050143;28;20184;-71
2023/03/12 00:57:23;;;;;;;9.07;3.17;;;-0.30;99.90;;;;;;5050162;28;20219;-71
2023/03/12 00:59:49;;;;;;;10.88;4.88;;;-0.30;99.90;;;;;;5049868;28;20212;-71
2023/03/12 01:02:15;;;;;;;6.13;4.57;;;-0.40;99.90;;;;;;5050134;28;20715;-71
2023/03/12 01:04:40;;;;;;;6.53;4.70;;;-0.40;99.90;;;;;;5050055;28;20215;-71
2023/03/12 01:07:06;;;;;;;6.97;4.17;;;-0.40;99.90;;;;;;5050176;28;20691;-72
2023/03/12 01:09:31;;;;;;;6.23;4.43;;;-0.50;99.90;;;;;;5050248;28;20239;-71
2023/03/12 01:11:57;;;;;;;7.57;4.23;;;-0.50;99.90;;;;;;5050124;28;20297;-71
2023/03/12 01:14:23;;;;;;;4.30;3.00;;;-0.50;99.90;;;;;;5050104;28;20552;-71
2023/03/12 01:16:49;;;;;;;5.13;2.23;;;-0.50;99.90;;;;;;5048999;28;20218;-71
2023/03/12 01:19:14;;;;;;;2.70;1.90;;;-0.50;99.90;;;;;;5049835;28;20310;-71
2023/03/12 01:21:40;;;;;;;7.77;2.63;;;-0.30;99.90;;;;;;5049806;28;20426;-71
2023/03/12 01:24:06;;;;;;;7.30;2.20;;;-0.30;99.90;;;;;;5049792;28;20675;-71
2023/03/12 01:26:32;;;;;;;9.18;2.20;;;-0.30;99.90;;;;;;5049706;28;20172;-71
2023/03/12 01:28:58;;;;;;;4.93;2.10;;;-0.20;99.90;;;;;;5049503;28;20673;-71
2023/03/12 01:31:24;;;;;;;2.63;2.13;;;-0.20;99.90;;;;;;5049721;28;20184;-71
2023/03/12 01:33:51;;;;;;;5.07;2.30;;;-0.20;99.90;;;;;;5049661;28;20198;-72
2023/03/12 01:36:26;;;;;;;8.75;2.75;;;-0.10;99.90;;;;;;5049132;28;20893;-71
2023/03/12 01:38:58;;;;;;;7.68;3.20;;;0.00;99.90;;;;;;5106209;27;20606;-72
2023/03/12 01:41:27;;;;;;;8.38;2.97;;;0.00;99.90;;;;;;5104650;28;20629;-72
2023/03/12 01:43:52;;;;;;;10.55;5.10;;;0.00;99.90;;;;;;5106460;28;20178;-71
2023/03/12 01:46:23;;;;;;;9.73;4.77;;;0.00;99.90;;;;;;5106441;28;20178;-72
2023/03/12 01:48:56;;;;;;;5.50;3.50;;;0.00;99.90;;;;;;5106573;28;20199;-71
2023/03/12 01:51:26;;;;;;;6.88;3.13;;;-0.10;99.90;;;;;;5106411;28;20556;-71
2023/03/12 01:53:56;;;;;;;5.80;2.90;;;0.00;99.90;;;;;;5104827;28;20222;-71
2023/03/12 01:56:29;;;;;;;3.28;2.60;;;0.00;99.90;;;;;;5104673;28;20186;-72
2023/03/12 01:58:58;;;;;;;2.75;2.05;;;0.10;99.90;;;;;;5105896;28;20220;-72
2023/03/12 02:01:24;;;;;;;6.25;3.25;;;0.20;99.90;;;;;;5106231;28;20206;-72
2023/03/12 02:03:52;;;;;;;7.80;2.70;;;0.20;99.90;;;;;;5104903;28;20271;-72
2023/03/12 02:06:23;;;;;;;5.82;3.00;;;0.30;99.90;;;;;;5106102;28;20404;-72
2023/03/12 02:08:50;;;;;;;3.47;2.60;;;0.30;99.90;;;;;;5104564;28;20817;-72
2023/03/12 02:11:16;;;;;;;3.28;1.67;;;0.30;99.90;;;;;;5104847;28;20188;-72
2023/03/12 02:13:41;;;;;;;5.40;2.43;;;0.40;99.90;;;;;;5104730;28;20210;-72
2023/03/12 02:16:08;;;;;;;7.20;2.47;;;0.40;99.90;;;;;;5106289;28;20429;-72
2023/03/12 02:18:34;;;;;;;7.00;3.15;;;0.40;99.90;;;;;;5105999;28;20214;-72
2023/03/12 02:21:15;;;;;;;7.20;2.50;;;0.40;99.90;;;;;;5106618;28;20189;-72
2023/03/12 02:23:49;;;;;;;3.28;2.20;;;0.50;99.90;;;;;;5106424;28;20184;-71
2023/03/12 02:26:16;;;;;;;3.13;2.55;;;0.60;99.90;;;;;;5106459;28;20195;-70
2023/03/12 02:28:44;;;;;;;2.65;2.00;;;0.60;99.90;;;;;;5106251;28;20597;-71
2023/03/12 02:31:16;;;;;;;3.30;2.25;;;0.60;99.90;;;;;;5106199;28;20174;-71
2023/03/12 02:33:41;;;;;;;3.25;2.38;;;0.60;99.90;;;;;;5105078;28;20190;-71
2023/03/12 02:36:08;;;;;;;5.50;3.03;;;0.60;99.90;;;;;;5105011;28;20182;-72
2023/03/12 02:38:44;;;;;;;4.70;2.85;;;0.50;99.90;;;;;;5105943;28;20213;-71
2023/03/12 02:41:21;;;;;;;4.25;3.05;;;0.50;99.90;;;;;;5106185;28;20242;-71
2023/03/12 02:44:13;;;;;;;4.15;2.55;;;0.50;99.90;;;;;;5106023;28;20761;-71
2023/03/12 02:46:42;;;;;;;4.03;2.45;;;0.50;99.90;;;;;;5094706;28;20198;-72
2023/03/12 02:49:08;;;;;;;5.60;2.50;;;0.50;99.90;;;;;;5098803;28;20201;-71
2023/03/12 02:51:33;;;;;;;5.63;2.50;;;0.60;99.90;;;;;;5092063;28;20570;-71
2023/03/12 02:53:59;;;;;;;5.47;2.57;;;0.60;99.90;;;;;;5091918;28;20179;-71
2023/03/12 02:56:27;;;;;;;4.43;2.37;;;0.60;99.90;;;;;;5091903;28;20589;-71
2023/03/12 02:58:53;;;;;;;2.97;2.45;;;0.60;99.90;;;;;;5091742;28;20215;-71
2023/03/12 03:01:19;;;;;;;4.90;2.47;;;0.60;99.90;;;;;;5090373;28;20567;-71
2023/03/12 03:03:45;;;;;;;4.30;2.58;;;0.60;99.90;;;;;;5091639;28;20859;-72
2023/03/12 03:06:12;;;;;;;11.77;3.30;;;0.70;99.90;;;;;;5091676;28;20197;-71
2023/03/12 03:08:37;;;;;;;6.18;2.45;;;0.70;99.90;;;;;;5091680;28;20670;-71
2023/03/12 03:11:04;;;;;;;3.87;2.40;;;0.70;99.90;;;;;;5091590;28;20187;-71
2023/03/12 03:13:30;;;;;;;5.10;2.42;;;0.80;99.90;;;;;;5091302;28;20685;-71
2023/03/12 03:16:00;;;;;;;8.73;3.13;;;0.80;99.90;;;;;;5091327;28;20534;-71
2023/03/12 03:18:27;;;;;;;5.55;2.40;;;0.80;99.90;;;;;;5091150;28;20230;-71
2023/03/12 03:21:01;;;;;;;5.72;2.85;;;0.80;99.90;;;;;;5091286;28;20187;-72
2023/03/12 03:23:26;;;;;;;5.25;2.42;;;0.90;99.90;;;;;;5091238;28;20171;-71
2023/03/12 03:25:53;;;;;;;2.83;2.63;;;0.90;99.90;;;;;;5091096;28;20185;-72
2023/03/12 03:28:24;;;;;;;7.40;2.60;;;0.90;99.90;;;;;;5091059;28;20411;-72
2023/03/12 03:30:56;;;;;;;4.43;2.40;;;1.00;99.90;;;;;;5090958;28;20192;-72
2023/03/12 03:33:23;;;;;;;5.45;3.03;;;0.90;99.90;;;;;;5090865;28;20753;-71
2023/03/12 03:35:49;;;;;;;8.27;2.97;;;0.90;99.90;;;;;;5089264;28;20187;-71
2023/03/12 03:38:14;;;;;;;5.53;3.58;;;0.90;99.90;;;;;;5090712;28;20637;-71
2023/03/12 03:40:40;;;;;;;6.57;2.77;;;0.90;99.90;;;;;;5090804;28;20185;-72
2023/03/12 03:43:05;;;;;;;3.20;2.00;;;0.90;99.90;;;;;;5090579;28;20174;-71
2023/03/12 03:45:31;;;;;;;13.00;5.10;;;1.00;99.90;;;;;;5089302;28;20554;-72
2023/03/12 03:47:57;;;;;;;10.43;4.17;;;1.10;99.90;;;;;;5072305;28;20189;-72
2023/03/12 03:50:22;;;;;;;11.00;5.70;;;1.10;99.90;;;;;;5090307;28;20289;-72
2023/03/12 03:52:48;;;;;;;14.27;8.27;;;1.20;99.90;;;;;;5090440;28;20720;-71
2023/03/12 03:55:14;;;;;;;11.57;6.43;;;1.10;99.90;;;;;;5088980;28;20336;-72
2023/03/12 03:57:39;;;;;;;10.17;5.33;;;1.10;99.90;;;;;;5090398;28;20203;-72
2023/03/12 04:00:08;;;;;;;8.37;5.00;;;1.10;99.90;;;;;;5088328;28;20227;-72
2023/03/12 04:02:34;;;;;;;7.53;4.35;;;1.10;99.90;;;;;;5090047;28;20179;-72
2023/03/12 04:05:00;;;;;;;5.40;3.57;;;1.00;99.90;;;;;;5072056;28;20225;-72
2023/03/12 04:07:26;;;;;;;8.47;4.83;;;1.10;99.90;;;;;;5090353;28;20512;-71
2023/03/12 04:09:52;;;;;;;11.93;5.03;;;1.10;99.90;;;;;;5071858;28;20441;-71
2023/03/12 04:12:18;;;;;;;10.03;5.97;;;1.00;99.90;;;;;;5089150;28;20220;-72
2023/03/12 04:14:43;;;;;;;8.50;5.17;;;1.10;99.90;;;;;;5090383;28;20416;-73
2023/03/12 04:17:09;;;;;;;8.50;4.87;;;1.20;99.90;;;;;;5088880;28;20630;-72
2023/03/12 04:19:35;;;;;;;13.03;5.90;;;1.20;99.90;;;;;;5090442;28;20194;-71
2023/03/12 04:22:01;;;;;;;17.70;5.93;;;1.30;99.90;;;;;;5090431;28;20175;-71
2023/03/12 04:24:27;;;;;;;4.80;3.97;;;1.30;99.90;;;;;;5090468;28;20182;-71
2023/03/12 04:26:52;;;;;;;4.33;3.30;;;1.60;99.90;;;;;;5073112;28;20239;-71
2023/03/12 04:29:18;;;;;;;5.30;3.20;;;1.90;99.90;;;;;;5090990;28;20208;-71
2023/03/12 04:31:44;;;;;;;5.20;3.40;;;2.20;99.90;;;;;;5089476;28;20814;-72
2023/03/12 04:34:11;;;;;;;3.40;2.87;;;2.30;99.90;;;;;;5090993;28;20199;-72
2023/03/12 04:36:36;;;;;;;7.90;3.20;;;2.50;99.90;;;;;;5072248;28;20421;-71
2023/03/12 04:39:06;;;;;;;4.40;3.20;;;2.60;99.90;;;;;;5089161;28;20217;-72
2023/03/12 04:41:32;;;;;;;6.05;2.95;;;2.60;99.90;;;;;;5090496;28;20176;-72
2023/03/12 04:43:58;;;;;;;5.43;2.28;;;2.70;99.90;;;;;;5090088;28;20184;-72
2023/03/12 04:46:24;;;;;;;7.33;3.10;;;2.80;99.90;;;;;;5088419;28;20666;-71
2023/03/12 04:48:49;;;;;;;3.63;2.57;;;2.80;99.90;;;;;;5088333;28;20237;-71
2023/03/12 04:51:15;;;;;;;5.23;2.80;;;2.90;99.90;;;;;;5088042;28;20677;-72
2023/03/12 04:53:41;;;;;;;6.83;2.87;;;2.90;99.90;;;;;;5089346;28;20273;-72
2023/03/12 04:56:07;;;;;;;4.70;2.80;;;2.90;99.90;;;;;;5089548;28;20174;-72
2023/03/12 04:58:32;;;;;;;2.95;2.15;;;2.90;99.90;;;;;;5089209;28;20223;-72
2023/03/12 05:00:58;;;;;;;2.47;2.27;;;2.90;99.90;;;;;;5089302;28;20191;-72
2023/03/12 05:03:24;;;;;;;3.20;2.20;;;2.90;99.90;;;;;;5089287;28;20186;-71
2023/03/12 05:05:49;;;;;;;5.10;2.57;;;2.90;99.90;;;;;;5089001;28;20212;-71
2023/03/12 05:08:15;;;;;;;3.10;2.47;;;2.90;99.90;;;;;;5070611;28;20880;-71
2023/03/12 05:10:44;;;;;;;8.17;3.13;;;2.90;99.90;;;;;;5087908;28;20187;-72
2023/03/12 05:13:15;;;;;;;3.30;2.30;;;2.90;99.90;;;;;;5088570;28;20186;-71
2023/03/12 05:15:41;;;;;;;2.78;2.15;;;2.90;99.90;;;;;;5088977;28;20541;-71
2023/03/12 05:18:07;;;;;;;5.40;2.22;;;3.00;99.90;;;;;;5088734;28;20289;-72
2023/03/12 05:20:32;;;;;;;3.60;2.50;;;3.00;99.90;;;;;;5088688;28;20340;-71
2023/03/12 05:22:58;;;;;;;6.80;2.30;;;3.00;99.90;;;;;;5087440;28;20179;-72
2023/03/12 05:25:23;;;;;;;4.87;2.33;;;3.10;99.90;;;;;;5088763;28;20781;-72
2023/03/12 05:27:49;;;;;;;3.20;2.10;;;3.00;99.90;;;;;;5088875;28;20199;-71
2023/03/12 05:30:15;;;;;;;4.03;2.07;;;3.00;99.90;;;;;;5087297;28;20256;-71
2023/03/12 05:32:40;;;;;;;4.23;2.10;;;3.00;99.90;;;;;;5088659;28;20571;-71
2023/03/12 05:35:06;;;;;;;3.00;1.73;;;3.00;99.90;;;;;;5088750;28;20489;-71
2023/03/12 05:37:32;;;;;;;6.20;2.53;;;3.00;99.90;;;;;;5088562;28;20212;-71
2023/03/12 05:39:57;;;;;;;1.67;1.57;;;3.00;99.90;;;;;;5088605;28;20552;-71
2023/03/12 05:42:24;;;;;;;4.50;2.27;;;3.00;99.90;;;;;;5088697;28;20185;-72
2023/03/12 05:44:50;;;;;;;2.28;2.10;;;2.90;99.90;;;;;;5087133;28;20218;-72
2023/03/12 05:47:16;;;;;;;4.95;2.05;;;2.80;99.90;;;;;;5088468;28;20572;-71
2023/03/12 05:49:43;;;;;;;3.60;2.07;;;2.70;99.90;;;;;;5088446;28;20206;-72
2023/03/12 05:52:08;;;;;;;3.00;2.38;;;2.60;99.90;;;;;;5088584;28;20509;-72
2023/03/12 05:54:34;;;;;;;2.67;2.00;;;2.50;99.90;;;;;;5088659;28;20316;-72
2023/03/12 05:57:01;;;;;;;7.67;2.70;;;2.40;99.90;;;;;;5088544;28;20448;-72
2023/03/12 05:59:27;;;;;;;5.50;2.65;;;2.40;99.90;;;;;;5088554;28;20996;-72
2023/03/12 06:01:53;;;;;;;7.37;2.90;;;2.40;99.90;;;;;;5088578;28;20188;-72
2023/03/12 06:04:19;;;;;;;4.40;2.37;;;2.40;99.90;;;;;;5088449;28;20413;-71
2023/03/12 06:06:44;;;;;;;3.87;2.83;;;2.40;99.90;;;;;;5088467;28;20180;-72
2023/03/12 06:09:10;;;;;;;7.50;3.90;;;2.40;99.90;;;;;;5088407;28;20242;-71
2023/03/12 06:11:36;;;;;;;7.97;4.60;;;2.40;99.90;;;;;;5087076;28;20175;-72
2023/03/12 06:14:01;;;;;;;8.60;4.70;;;2.40;99.90;;;;;;5088439;28;20187;-71
2023/03/12 06:16:28;;;;;;;7.50;4.83;;;2.40;99.90;;;;;;5088206;28;20195;-72
2023/03/12 06:19:00;;;;;;;9.80;6.18;;;2.50;99.90;;;;;;5086798;28;20226;-72
2023/03/12 06:21:28;;;;;;;8.65;5.82;;;2.50;99.90;;;;;;5088392;28;20240;-71
2023/03/12 06:23:54;;;;;;;13.05;6.82;;;2.50;99.90;;;;;;5089136;28;20183;-71
2023/03/12 06:26:21;;;;;;;9.47;6.60;;;2.50;99.90;;;;;;5092180;28;20957;-71
2023/03/12 06:28:48;;;;;;;10.68;7.18;;;2.50;99.90;;;;;;5091984;28;20802;-72
2023/03/12 06:31:17;;;;;;;13.38;7.47;;;2.50;99.90;;;;;;5090497;28;20286;-72
2023/03/12 06:33:43;;;;;;;11.32;7.88;;;2.60;99.90;;;;;;5092053;28;20179;-72
2023/03/12 06:36:10;;;;;;;16.97;8.90;;;2.60;99.90;;;;;;5092047;28;20281;-72
2023/03/12 06:38:36;;;;;;;16.75;9.20;;;2.70;99.90;;;;;;5091697;28;20632;-72
2023/03/12 06:41:05;;;;;;;17.60;9.93;;;2.70;99.90;;;;;;5092032;28;20738;-71
2023/03/12 06:43:33;;;;;;;15.57;9.00;;;2.70;99.90;;;;;;5092100;28;20211;-72
2023/03/12 06:46:00;;;;;;;14.60;9.25;;;2.70;99.90;;;;;;5092083;28;20203;-71
2023/03/12 06:48:27;;;;;;;14.15;8.27;;;2.70;99.90;;;;;;5092033;28;20210;-71
2023/03/12 06:50:52;;;;;;;14.65;9.32;;;2.80;99.90;;;;;;5091688;28;20629;-72
2023/03/12 06:53:19;;;;;;;16.50;9.60;;;2.90;99.90;;;;;;5090075;28;20201;-72
2023/03/12 06:55:45;;;;;;;15.93;10.13;;;2.90;99.90;;;;;;5091945;28;20244;-72
2023/03/12 06:58:11;;;;;;;15.13;9.65;;;2.90;99.90;;;;;;5090049;28;20259;-73
2023/03/12 07:00:37;;;;;;;16.77;10.90;;;3.00;99.90;;;;;;5090031;28;20256;-72
2023/03/12 07:03:02;;;;;;;19.90;11.30;;;3.00;99.90;;;;;;5091407;28;20668;-72
2023/03/12 07:05:28;;;;;;;16.00;10.07;;;3.10;99.90;;;;;;5091444;28;20190;-72
2023/03/12 07:07:54;;;;;;;19.00;10.63;;;3.10;99.90;;;;;;5091543;28;20300;-72
2023/03/12 07:10:21;;;;;;;17.17;10.30;;;3.20;99.90;;;;;;5091838;28;20293;-72
2023/03/12 07:12:46;;;;;;;17.95;10.48;;;3.30;99.90;;;;;;5091455;28;20183;-71
2023/03/12 07:15:12;;;;;;;20.80;12.13;;;3.30;99.90;;;;;;5091405;28;20190;-72
2023/03/12 07:17:38;;;;;;;17.77;10.90;;;3.40;99.90;;;;;;5091124;28;20211;-73
2023/03/12 07:20:04;;;;;;;18.83;9.77;;;3.50;99.90;;;;;;5091284;28;20232;-72
2023/03/12 07:22:30;;;;;;;18.45;9.98;;;3.60;99.90;;;;;;5088963;28;20199;-75
2023/03/12 07:24:56;;;;;;;15.37;9.63;;;3.70;99.90;;;;;;5091162;28;20190;-72
2023/03/12 07:27:21;;;;;;;15.07;9.57;;;3.70;99.90;;;;;;5091054;28;20664;-73
2023/03/12 07:29:53;;;;;;;13.90;8.90;;;3.70;99.90;;;;;;5089743;28;20249;-73
2023/03/12 07:32:18;;;;;;;15.63;9.95;;;3.70;99.90;;;;;;5089788;28;20193;-72
2023/03/12 07:34:44;;;;;;;13.00;8.13;;;3.80;99.90;;;;;;5090990;28;20202;-73
2023/03/12 07:37:10;;;;;;;14.13;9.40;;;3.80;99.90;;;;;;5091170;28;20263;-72
2023/03/12 07:39:35;;;;;;;12.27;7.60;;;3.90;99.90;;;;;;5072976;28;20209;-73
2023/03/12 07:42:02;;;;;;;13.20;8.13;;;3.90;99.90;;;;;;5091339;28;20204;-72
2023/03/12 07:44:28;;;;;;;15.50;8.95;;;4.00;99.90;;;;;;5091267;28;20186;-72
2023/03/12 07:46:53;;;;;;;11.50;6.97;;;4.10;99.90;;;;;;5091288;28;20181;-72
2023/03/12 07:49:19;;;;;;;13.90;8.70;;;4.00;99.90;;;;;;5089923;28;20200;-72
2023/03/12 07:51:45;;;;;;;13.40;8.23;;;4.00;99.90;;;;;;5091206;28;20188;-72
2023/03/12 07:54:10;;;;;;;13.70;9.47;;;4.10;99.90;;;;;;5089894;28;20419;-72
2023/03/12 07:56:36;;;;;;;11.73;8.17;;;4.10;99.90;;;;;;5091140;28;20551;-72
2023/03/12 07:59:02;;;;;;;12.93;8.37;;;4.20;99.90;;;;;;5089359;28;20270;-72
2023/03/12 08:01:31;;;;;;;12.65;8.10;;;4.20;99.90;;;;;;5090280;28;20179;-72
2023/03/12 08:04:01;;;;;;;12.30;7.95;;;4.30;99.90;;;;;;5087964;28;20716;-72
2023/03/12 08:06:27;;;;;;;15.68;8.45;;;4.40;99.90;;;;;;5089001;28;20192;-72
2023/03/12 08:08:53;;;;;;;12.15;8.05;;;4.50;99.90;;;;;;5088894;28;20208;-72
2023/03/12 08:11:20;;;;;;;9.82;7.60;;;4.60;99.90;;;;;;5088929;28;20188;-72
2023/03/12 08:13:45;;;;;;;10.57;7.53;;;4.70;99.90;;;;;;5089114;28;20193;-72
2023/03/12 08:16:11;;;;;;;10.87;6.93;;;4.90;99.90;;;;;;5088701;28;20188;-72
2023/03/12 08:18:37;;;;;;;10.20;7.10;;;5.10;99.90;;;;;;5087065;28;20847;-72
2023/03/12 08:21:02;;;;;;;8.47;5.40;;;5.20;99.90;;;;;;5069985;28;20626;-73
2023/03/12 08:23:28;;;;;;;10.73;6.27;;;5.20;99.90;;;;;;5087320;28;20665;-72
2023/03/12 08:25:54;;;;;;;7.90;5.30;;;5.10;99.90;;;;;;5087223;28;20254;-73
2023/03/12 08:28:21;;;;;;;7.60;4.90;;;5.20;99.90;;;;;;5086942;28;20685;-72
2023/03/12 08:30:52;;;;;;;9.00;6.40;;;5.40;99.90;;;;;;5088341;28;20184;-73
2023/03/12 08:33:18;;;;;;;9.68;5.72;;;5.50;99.90;;;;;;5088850;28;20177;-72
2023/03/12 08:35:44;;;;;;;5.00;4.20;;;5.70;99.90;;;;;;5088443;28;20782;-72
2023/03/12 08:38:10;;;;;;;9.85;5.20;;;5.80;99.90;;;;;;5086483;28;20308;-72
2023/03/12 08:40:36;;;;;;;6.30;4.40;;;6.00;99.90;;;;;;5088275;28;20326;-72
2023/03/12 08:43:02;;;;;;;4.65;4.15;;;6.10;99.90;;;;;;5088297;28;20446;-72
2023/03/12 08:45:28;;;;;;;6.30;3.90;;;6.20;99.90;;;;;;5088082;28;20243;-72
2023/03/12 08:47:54;;;;;;;5.37;4.37;;;6.20;99.90;;;;;;5086249;28;20453;-73
2023/03/12 08:50:21;;;;;;;6.30;3.90;;;6.20;99.90;;;;;;5087818;28;20770;-72
2023/03/12 08:52:47;;;;;;;6.03;3.70;;;6.30;99.90;;;;;;5069953;28;20190;-72
2023/03/12 08:55:13;;;;;;;3.13;2.80;;;6.30;99.90;;;;;;5086358;28;20472;-72
2023/03/12 08:57:39;;;;;;;3.58;3.13;;;6.50;99.90;;;;;;5086416;28;20354;-72
2023/03/12 09:00:10;;;;;;;4.00;2.93;;;6.50;99.90;;;;;;5087669;28;20279;-72
2023/03/12 09:02:36;;;;;;;2.90;2.40;;;6.60;99.90;;;;;;5088079;28;20184;-72
2023/03/12 09:05:03;;;;;;;2.97;2.67;;;6.60;99.90;;;;;;5087953;28;20416;-71
2023/03/12 09:07:30;;;;;;;2.60;2.10;;;6.70;99.90;;;;;;5087954;28;20459;-71
2023/03/12 09:09:56;;;;;;;8.90;2.43;;;6.80;99.90;;;;;;5086616;28;20454;-71
2023/03/12 09:12:23;;;;;;;3.57;2.73;;;6.80;99.90;;;;;;5088388;28;20461;-73
2023/03/12 09:14:50;;;;;;;2.73;2.37;;;6.90;99.90;;;;;;5088560;28;20988;-72
2023/03/12 09:17:15;;;;;;;5.07;2.37;;;6.90;99.90;;;;;;5088184;28;20464;-72
2023/03/12 09:19:41;;;;;;;4.63;2.33;;;7.00;99.90;;;;;;5086684;28;20959;-72
2023/03/12 09:22:07;;;;;;;2.37;2.17;;;7.10;99.90;;;;;;5088483;28;20186;-72
2023/03/12 09:24:32;;;;;;;2.60;2.40;;;7.20;99.90;;;;;;5088184;28;20177;-73
2023/03/12 09:26:58;;;;;;;2.30;2.10;;;7.30;99.90;;;;;;5088110;28;20202;-72
2023/03/12 09:29:24;;;;;;;6.10;2.07;;;7.40;99.90;;;;;;5086337;28;20254;-72
2023/03/12 09:31:50;;;;;;;2.07;1.87;;;7.40;99.90;;;;;;5086464;28;20666;-72
2023/03/12 09:34:16;;;;;;;1.70;1.60;;;7.40;99.90;;;;;;5086277;28;20459;-72
2023/03/12 09:36:42;;;;;;;2.93;2.53;;;7.40;99.90;;;;;;5087675;28;20535;-72
2023/03/12 09:39:08;;;;;;;4.63;1.97;;;7.50;99.90;;;;;;5085718;28;21018;-72
2023/03/12 09:41:40;;;;;;;2.27;1.60;;;7.60;99.90;;;;;;5087374;28;20246;-72
2023/03/12 09:44:31;;;;;;;4.23;1.90;;;7.60;99.90;;;;;;5088248;28;20667;-72
2023/03/12 09:47:06;;;;;;;3.63;1.50;;;7.60;99.90;;;;;;5087897;28;20416;-72
2023/03/12 09:49:48;;;;;;;2.43;2.23;;;7.60;99.90;;;;;;5088293;28;20951;-71
2023/03/12 09:52:23;;;;;;;2.47;2.03;;;7.50;99.90;;;;;;5086711;28;20853;-72
2023/03/12 09:55:15;;;;;;;2.53;2.03;;;7.60;99.90;;;;;;5087788;28;20422;-72
2023/03/12 09:57:43;;;;;;;4.40;2.20;;;7.70;99.90;;;;;;5085773;28;20522;-72
2023/03/12 10:00:15;;;;;;;3.07;2.23;;;7.80;99.90;;;;;;5089854;28;20972;-72
2023/03/12 10:02:52;;;;;;;4.33;1.90;;;7.80;99.90;;;;;;5090176;28;20924;-72
2023/03/12 10:05:43;;;;;;;2.87;2.00;;;7.90;99.90;;;;;;5091224;28;20775;-72
2023/03/12 10:08:40;;;;;;;3.23;2.20;;;8.10;99.90;;;;;;5091234;28;20420;-72
2023/03/12 10:11:51;;;;;;;4.77;2.20;;;8.10;99.90;;;;;;5091147;28;20527;-72
2023/03/12 10:14:31;;;;;;;5.23;2.60;;;8.30;99.90;;;;;;5091127;28;20938;-72
2023/03/12 10:17:20;;;;;;;2.60;1.90;;;8.50;99.90;;;;;;5090918;28;20504;-72
2023/03/12 10:20:01;;;;;;;5.30;2.20;;;8.60;99.90;;;;;;5090781;28;20463;-72
2023/03/12 10:23:01;;;;;;;2.63;2.40;;;8.50;99.90;;;;;;5091175;28;20405;-72
2023/03/12 10:25:46;;;;;;;5.03;2.50;;;8.50;99.90;;;;;;5079654;28;20844;-72
2023/03/12 10:28:17;;;;;;;3.23;2.00;;;8.70;99.90;;;;;;5088973;28;20436;-72
2023/03/12 10:30:55;;;;;;;2.60;2.37;;;8.80;99.90;;;;;;5090638;28;20897;-72
2023/03/12 10:33:28;;;;;;;2.53;2.20;;;8.90;99.90;;;;;;5090822;28;20412;-71
2023/03/12 10:35:54;;;;;;;3.70;2.23;;;8.90;99.90;;;;;;5090773;28;21004;-70
2023/03/12 10:38:28;;;;;;;3.53;2.73;;;9.00;99.90;;;;;;5089017;28;21124;-71
2023/03/12 10:40:54;;;;;;;3.47;1.90;;;9.00;99.90;;;;;;5090303;28;20412;-72
2023/03/12 10:43:20;;;;;;;3.67;2.67;;;9.20;99.90;;;;;;5090335;28;20457;-71
2023/03/12 10:45:59;;;;;;;2.77;2.30;;;9.40;99.90;;;;;;5088752;28;20409;-71
2023/03/12 10:48:25;;;;;;;1.70;1.60;;;9.30;99.90;;;;;;5090177;28;20505;-71
2023/03/12 10:50:59;;;;;;;2.23;1.87;;;9.30;99.90;;;;;;5090104;28;20512;-71
2023/03/12 10:53:31;;;;;;;3.93;1.47;;;9.40;99.90;;;;;;5088649;28;20430;-71
2023/03/12 10:56:18;;;;;;;3.93;1.57;;;9.50;99.90;;;;;;5089846;28;20416;-71
2023/03/12 10:58:50;;;;;;;6.50;2.00;;;9.60;99.90;;;;;;5087978;28;20460;-72
2023/03/12 11:01:18;;;;;;;2.10;1.50;;;9.70;99.90;;;;;;5089792;28;21237;-72
2023/03/12 11:03:47;;;;;;;3.83;1.20;;;9.90;99.90;;;;;;5089689;28;21015;-72
2023/03/12 11:06:39;;;;;;;4.17;1.40;;;10.00;99.90;;;;;;5089838;28;20424;-72
2023/03/12 11:09:18;;;;;;;5.30;1.50;;;10.20;99.90;;;;;;5085915;28;20506;-72
2023/03/12 11:11:46;;;;;;;3.57;1.43;;;10.30;99.90;;;;;;5089988;28;20499;-72
2023/03/12 11:14:25;;;;;;;5.57;2.40;;;10.20;99.90;;;;;;5090022;28;20478;-72
2023/03/12 11:16:52;;;;;;;2.80;1.40;;;10.20;99.90;;;;;;5088367;28;20420;-72
2023/03/12 11:19:31;;;;;;;2.83;1.10;;;10.10;99.90;;;;;;5090013;28;20525;-72
2023/03/12 11:22:07;;;;;;;3.20;1.17;;;10.10;99.90;;;;;;5089875;28;20832;-72
2023/03/12 11:24:34;;;;;;;2.70;0.93;;;10.10;99.90;;;;;;5089837;28;20549;-72
2023/03/12 11:27:22;;;;;;;5.63;1.27;;;10.10;99.90;;;;;;5090160;28;20406;-72
2023/03/12 11:29:49;;;;;;;3.37;1.53;;;10.00;99.90;;;;;;5090481;28;20424;-72
2023/03/12 11:32:22;;;;;;;2.30;1.57;;;10.00;99.90;;;;;;5088776;28;20925;-72
2023/03/12 11:34:48;;;;;;;4.33;1.20;;;10.00;99.90;;;;;;5090307;28;20751;-71
2023/03/12 11:37:36;;;;;;;6.67;1.20;;;9.90;99.90;;;;;;5089671;28;20468;-72
2023/03/12 11:40:26;;;;;;;5.90;1.63;;;9.90;99.90;;;;;;5088583;28;20439;-72
2023/03/12 11:43:06;;;;;;;10.63;1.50;;;9.90;99.90;;;;;;5089975;28;20425;-72
2023/03/12 11:45:50;;;;;;;7.60;1.63;;;9.90;99.90;;;;;;5090060;28;20523;-72
2023/03/12 11:48:23;;;;;;;7.10;1.87;;;10.00;99.90;;;;;;5089657;28;20818;-72
2023/03/12 11:51:22;;;;;;;4.40;2.13;;;10.00;99.90;;;;;;5089899;28;20404;-72
2023/03/12 11:54:06;;;;;;;12.93;2.13;;;10.10;99.90;;;;;;5090045;28;20424;-72
2023/03/12 11:56:39;;;;;;;4.20;1.20;;;10.20;99.90;;;;;;5090451;28;20420;-72
2023/03/12 11:59:26;;;;;;;6.87;1.40;;;10.30;99.90;;;;;;5089746;28;20469;-72
2023/03/12 12:02:29;;;;;;;3.70;1.23;;;10.40;99.90;;;;;;5087937;28;20428;-72
2023/03/12 12:05:17;;;;;;;7.20;1.40;;;10.40;99.90;;;;;;5089469;28;20412;-71
2023/03/12 12:07:42;;;;;;;7.03;2.90;;;10.60;99.90;;;;;;5089500;28;20578;-72
2023/03/12 12:10:19;;;;;;;2.30;1.27;;;10.80;99.90;;;;;;5089456;28;20945;-72
2023/03/12 12:13:18;;;;;;;4.70;1.97;;;10.90;99.90;;;;;;5089594;28;20183;-72
2023/03/12 12:15:53;;;;;;;5.83;2.60;;;11.10;99.90;;;;;;5089222;28;20418;-72
2023/03/12 12:18:22;;;;;;;6.87;1.43;;;11.00;99.90;;;;;;5089502;28;20554;-72
2023/03/12 12:20:55;;;;;;;7.03;1.63;;;11.00;99.90;;;;;;5088980;28;20412;-72
2023/03/12 12:23:32;;;;;;;5.43;1.57;;;11.00;99.90;;;;;;5088239;28;20858;-72
2023/03/12 12:26:04;;;;;;;3.30;1.00;;;11.10;99.90;;;;;;5089137;28;20413;-72
2023/03/12 12:28:48;;;;;;;6.73;2.37;;;11.10;99.90;;;;;;5089080;28;20490;-72
2023/03/12 12:31:34;;;;;;;8.30;1.57;;;11.10;99.90;;;;;;5089222;28;20814;-72
2023/03/12 12:34:46;;;;;;;2.60;1.07;;;11.20;99.90;;;;;;5087799;28;20954;-72
2023/03/12 12:37:24;;;;;;;3.70;1.77;;;11.30;99.90;;;;;;5087332;28;20452;-72
2023/03/12 12:40:24;;;;;;;8.90;3.93;;;11.40;99.90;;;;;;5088914;28;20962;-71
2023/03/12 12:43:09;;;;;;;4.10;1.70;;;11.50;99.90;;;;;;5016302;28;20520;-71
2023/03/12 12:45:39;;;;;;;3.67;1.10;;;11.60;99.90;;;;;;5089262;28;20427;-71
2023/03/12 12:48:23;;;;;;;3.27;1.50;;;11.80;99.90;;;;;;5089131;28;20420;-72
2023/03/12 12:50:51;;;;;;;5.40;1.73;;;11.80;99.90;;;;;;5088986;28;20899;-71
2023/03/12 12:53:38;;;;;;;4.53;1.13;;;11.90;99.90;;;;;;5087756;28;20515;-72
2023/03/12 12:56:29;;;;;;;2.47;1.10;;;12.00;99.90;;;;;;5087834;28;20433;-72
2023/03/12 12:59:20;;;;;;;3.30;1.17;;;12.00;99.90;;;;;;5088915;28;20457;-72
2023/03/12 13:01:47;;;;;;;5.23;1.57;;;12.10;99.90;;;;;;5089174;28;20417;-72
2023/03/12 13:04:22;;;;;;;5.00;1.93;;;12.20;99.90;;;;;;5087437;28;20411;-72
2023/03/12 13:07:01;;;;;;;9.17;2.47;;;12.20;99.90;;;;;;5089139;28;20498;-72